sensor_id;sensor_type;location;lat;lon;timestamp;P1;durP1;ratioP1;P2;durP2;ratioP2
75506;SDS011;64086;43.220;27.878;2022-12-07T00:01:08;4.60;;;2.28;;
75506;SDS011;64086;43.220;27.878;2022-12-07T00:03:36;5.22;;;2.78;;
75506;SDS011;64086;43.220;27.878;2022-12-07T00:06:02;6.38;;;3.03;;
75506;SDS011;64086;43.220;27.878;2022-12-07T00:08:29;4.60;;;2.45;;
75506;SDS011;64086;43.220;27.878;2022-12-07T00:10:58;5.38;;;2.40;;
75506;SDS011;64086;43.220;27.878;2022-12-07T00:13:26;6.50;;;2.92;;
75506;SDS011;64086;43.220;27.878;2022-12-07T00:15:51;3.40;;;2.20;;
75506;SDS011;64086;43.220;27.878;2022-12-07T00:18:16;5.10;;;2.20;;
75506;SDS011;64086;43.220;27.878;2022-12-07T00:20:42;4.68;;;2.15;;
75506;SDS011;64086;43.220;27.878;2022-12-07T00:23:07;4.45;;;2.40;;
75506;SDS011;64086;43.220;27.878;2022-12-07T00:25:33;3.30;;;1.85;;
75506;SDS011;64086;43.220;27.878;2022-12-07T00:27:58;3.65;;;2.00;;
75506;SDS011;64086;43.220;27.878;2022-12-07T00:30:24;5.78;;;2.08;;
75506;SDS011;64086;43.220;27.878;2022-12-07T00:32:49;4.45;;;1.70;;
75506;SDS011;64086;43.220;27.878;2022-12-07T00:35:15;5.18;;;1.92;;
75506;SDS011;64086;43.220;27.878;2022-12-07T00:37:40;4.47;;;1.90;;
75506;SDS011;64086;43.220;27.878;2022-12-07T00:40:06;3.40;;;1.75;;
75506;SDS011;64086;43.220;27.878;2022-12-07T00:42:32;5.45;;;1.77;;
75506;SDS011;64086;43.220;27.878;2022-12-07T00:44:57;3.78;;;1.70;;
75506;SDS011;64086;43.220;27.878;2022-12-07T00:47:23;3.78;;;1.70;;
75506;SDS011;64086;43.220;27.878;2022-12-07T00:49:48;4.05;;;1.90;;
75506;SDS011;64086;43.220;27.878;2022-12-07T00:52:13;4.00;;;1.83;;
75506;SDS011;64086;43.220;27.878;2022-12-07T00:54:39;3.92;;;2.45;;
75506;SDS011;64086;43.220;27.878;2022-12-07T00:57:05;6.28;;;2.30;;
75506;SDS011;64086;43.220;27.878;2022-12-07T00:59:30;3.90;;;2.17;;
75506;SDS011;64086;43.220;27.878;2022-12-07T01:01:56;4.00;;;1.92;;
75506;SDS011;64086;43.220;27.878;2022-12-07T01:04:21;4.90;;;2.15;;
75506;SDS011;64086;43.220;27.878;2022-12-07T01:06:46;2.97;;;2.00;;
75506;SDS011;64086;43.220;27.878;2022-12-07T01:09:12;4.82;;;1.92;;
75506;SDS011;64086;43.220;27.878;2022-12-07T01:11:37;3.55;;;1.90;;
75506;SDS011;64086;43.220;27.878;2022-12-07T01:14:03;3.72;;;2.15;;
75506;SDS011;64086;43.220;27.878;2022-12-07T01:16:29;3.38;;;2.13;;
75506;SDS011;64086;43.220;27.878;2022-12-07T01:18:56;3.60;;;1.98;;
75506;SDS011;64086;43.220;27.878;2022-12-07T01:21:23;7.25;;;2.50;;
75506;SDS011;64086;43.220;27.878;2022-12-07T01:23:50;4.10;;;2.08;;
75506;SDS011;64086;43.220;27.878;2022-12-07T01:26:17;3.90;;;2.00;;
75506;SDS011;64086;43.220;27.878;2022-12-07T01:28:43;4.32;;;2.28;;
75506;SDS011;64086;43.220;27.878;2022-12-07T01:31:13;3.83;;;2.30;;
75506;SDS011;64086;43.220;27.878;2022-12-07T01:33:41;6.65;;;2.22;;
75506;SDS011;64086;43.220;27.878;2022-12-07T01:36:14;4.07;;;2.20;;
75506;SDS011;64086;43.220;27.878;2022-12-07T01:38:40;5.43;;;2.00;;
75506;SDS011;64086;43.220;27.878;2022-12-07T01:41:05;4.10;;;2.28;;
75506;SDS011;64086;43.220;27.878;2022-12-07T01:43:31;3.47;;;2.10;;
75506;SDS011;64086;43.220;27.878;2022-12-07T01:45:58;3.65;;;2.20;;
75506;SDS011;64086;43.220;27.878;2022-12-07T01:48:44;4.50;;;2.30;;
75506;SDS011;64086;43.220;27.878;2022-12-07T01:51:10;5.72;;;2.47;;
75506;SDS011;64086;43.220;27.878;2022-12-07T01:53:37;3.58;;;2.55;;
75506;SDS011;64086;43.220;27.878;2022-12-07T01:56:05;4.05;;;2.38;;
75506;SDS011;64086;43.220;27.878;2022-12-07T01:58:32;3.97;;;2.42;;
75506;SDS011;64086;43.220;27.878;2022-12-07T02:00:57;3.58;;;2.40;;
75506;SDS011;64086;43.220;27.878;2022-12-07T02:03:31;4.10;;;2.55;;
75506;SDS011;64086;43.220;27.878;2022-12-07T02:05:59;4.93;;;2.92;;
75506;SDS011;64086;43.220;27.878;2022-12-07T02:08:25;4.88;;;2.97;;
75506;SDS011;64086;43.220;27.878;2022-12-07T02:10:50;4.72;;;3.17;;
75506;SDS011;64086;43.220;27.878;2022-12-07T02:13:20;5.40;;;3.28;;
75506;SDS011;64086;43.220;27.878;2022-12-07T02:21:38;6.28;;;4.20;;
75506;SDS011;64086;43.220;27.878;2022-12-07T02:35:18;5.65;;;4.10;;
75506;SDS011;64086;43.220;27.878;2022-12-07T02:40:22;5.75;;;4.05;;
75506;SDS011;64086;43.220;27.878;2022-12-07T02:43:28;6.07;;;4.20;;
75506;SDS011;64086;43.220;27.878;2022-12-07T02:45:54;5.88;;;4.05;;
75506;SDS011;64086;43.220;27.878;2022-12-07T02:48:25;5.95;;;4.40;;
75506;SDS011;64086;43.220;27.878;2022-12-07T02:50:51;8.05;;;4.43;;
75506;SDS011;64086;43.220;27.878;2022-12-07T02:53:37;6.38;;;4.55;;
75506;SDS011;64086;43.220;27.878;2022-12-07T02:56:10;6.10;;;4.72;;
75506;SDS011;64086;43.220;27.878;2022-12-07T02:58:50;6.25;;;4.65;;
75506;SDS011;64086;43.220;27.878;2022-12-07T03:01:22;7.50;;;5.30;;
75506;SDS011;64086;43.220;27.878;2022-12-07T03:04:24;7.32;;;4.78;;
75506;SDS011;64086;43.220;27.878;2022-12-07T03:07:05;8.32;;;5.00;;
75506;SDS011;64086;43.220;27.878;2022-12-07T03:15:26;8.38;;;5.00;;
75506;SDS011;64086;43.220;27.878;2022-12-07T03:17:57;6.32;;;4.93;;
75506;SDS011;64086;43.220;27.878;2022-12-07T03:20:24;6.18;;;4.68;;
75506;SDS011;64086;43.220;27.878;2022-12-07T03:22:50;7.68;;;5.60;;
75506;SDS011;64086;43.220;27.878;2022-12-07T03:25:16;8.05;;;5.65;;
75506;SDS011;64086;43.220;27.878;2022-12-07T03:30:18;7.05;;;5.68;;
75506;SDS011;64086;43.220;27.878;2022-12-07T03:32:53;9.07;;;6.45;;
75506;SDS011;64086;43.220;27.878;2022-12-07T03:35:26;9.73;;;7.25;;
75506;SDS011;64086;43.220;27.878;2022-12-07T03:37:58;11.40;;;9.15;;
75506;SDS011;64086;43.220;27.878;2022-12-07T03:40:37;14.38;;;9.43;;
75506;SDS011;64086;43.220;27.878;2022-12-07T03:43:05;11.15;;;8.05;;
75506;SDS011;64086;43.220;27.878;2022-12-07T03:45:42;10.07;;;7.47;;
75506;SDS011;64086;43.220;27.878;2022-12-07T03:48:22;6.97;;;5.95;;
75506;SDS011;64086;43.220;27.878;2022-12-07T03:53:18;8.30;;;6.32;;
75506;SDS011;64086;43.220;27.878;2022-12-07T03:55:47;8.88;;;5.78;;
75506;SDS011;64086;43.220;27.878;2022-12-07T03:58:15;9.40;;;6.20;;
75506;SDS011;64086;43.220;27.878;2022-12-07T04:00:43;7.10;;;5.38;;
75506;SDS011;64086;43.220;27.878;2022-12-07T04:03:09;9.32;;;5.65;;
75506;SDS011;64086;43.220;27.878;2022-12-07T04:05:35;10.20;;;6.28;;
75506;SDS011;64086;43.220;27.878;2022-12-07T04:08:00;9.32;;;6.75;;
75506;SDS011;64086;43.220;27.878;2022-12-07T04:10:26;11.18;;;8.02;;
75506;SDS011;64086;43.220;27.878;2022-12-07T04:12:51;12.52;;;8.90;;
75506;SDS011;64086;43.220;27.878;2022-12-07T04:15:17;15.30;;;11.05;;
75506;SDS011;64086;43.220;27.878;2022-12-07T04:17:42;14.18;;;10.40;;
75506;SDS011;64086;43.220;27.878;2022-12-07T04:20:08;14.93;;;11.40;;
75506;SDS011;64086;43.220;27.878;2022-12-07T04:22:33;16.63;;;12.13;;
75506;SDS011;64086;43.220;27.878;2022-12-07T04:24:59;17.58;;;13.32;;
75506;SDS011;64086;43.220;27.878;2022-12-07T04:27:24;13.18;;;11.20;;
75506;SDS011;64086;43.220;27.878;2022-12-07T04:29:50;14.27;;;11.10;;
75506;SDS011;64086;43.220;27.878;2022-12-07T04:32:15;13.18;;;9.98;;
75506;SDS011;64086;43.220;27.878;2022-12-07T04:34:40;12.98;;;9.23;;
75506;SDS011;64086;43.220;27.878;2022-12-07T04:37:06;11.93;;;8.73;;
75506;SDS011;64086;43.220;27.878;2022-12-07T04:39:32;13.50;;;8.52;;
75506;SDS011;64086;43.220;27.878;2022-12-07T04:41:58;13.13;;;8.82;;
75506;SDS011;64086;43.220;27.878;2022-12-07T04:44:24;12.57;;;9.15;;
75506;SDS011;64086;43.220;27.878;2022-12-07T04:46:50;12.35;;;8.55;;
75506;SDS011;64086;43.220;27.878;2022-12-07T04:49:16;12.23;;;9.45;;
75506;SDS011;64086;43.220;27.878;2022-12-07T04:51:42;12.65;;;9.60;;
75506;SDS011;64086;43.220;27.878;2022-12-07T04:54:08;12.32;;;8.55;;
75506;SDS011;64086;43.220;27.878;2022-12-07T04:56:34;11.70;;;8.43;;
75506;SDS011;64086;43.220;27.878;2022-12-07T04:59:00;14.05;;;9.75;;
75506;SDS011;64086;43.220;27.878;2022-12-07T05:01:26;14.23;;;10.10;;
75506;SDS011;64086;43.220;27.878;2022-12-07T05:03:52;15.13;;;10.77;;
75506;SDS011;64086;43.220;27.878;2022-12-07T05:06:17;15.27;;;11.48;;
75506;SDS011;64086;43.220;27.878;2022-12-07T05:08:43;14.90;;;10.27;;
75506;SDS011;64086;43.220;27.878;2022-12-07T05:11:08;11.38;;;8.57;;
75506;SDS011;64086;43.220;27.878;2022-12-07T05:13:35;11.65;;;8.65;;
75506;SDS011;64086;43.220;27.878;2022-12-07T05:16:01;15.65;;;11.18;;
75506;SDS011;64086;43.220;27.878;2022-12-07T05:18:26;15.23;;;10.25;;
75506;SDS011;64086;43.220;27.878;2022-12-07T05:20:52;15.40;;;10.35;;
75506;SDS011;64086;43.220;27.878;2022-12-07T05:23:18;13.50;;;10.05;;
75506;SDS011;64086;43.220;27.878;2022-12-07T05:25:43;13.35;;;9.75;;
75506;SDS011;64086;43.220;27.878;2022-12-07T05:28:09;14.70;;;10.40;;
75506;SDS011;64086;43.220;27.878;2022-12-07T05:30:35;13.20;;;10.65;;
75506;SDS011;64086;43.220;27.878;2022-12-07T05:33:01;14.77;;;10.65;;
75506;SDS011;64086;43.220;27.878;2022-12-07T05:35:27;14.40;;;11.07;;
75506;SDS011;64086;43.220;27.878;2022-12-07T05:37:53;15.18;;;11.80;;
75506;SDS011;64086;43.220;27.878;2022-12-07T05:40:18;15.27;;;11.75;;
75506;SDS011;64086;43.220;27.878;2022-12-07T05:42:44;15.80;;;11.23;;
75506;SDS011;64086;43.220;27.878;2022-12-07T05:45:10;16.05;;;11.38;;
75506;SDS011;64086;43.220;27.878;2022-12-07T05:47:36;17.10;;;13.18;;
75506;SDS011;64086;43.220;27.878;2022-12-07T05:50:02;19.38;;;14.80;;
75506;SDS011;64086;43.220;27.878;2022-12-07T05:52:28;20.35;;;14.77;;
75506;SDS011;64086;43.220;27.878;2022-12-07T05:54:53;22.38;;;15.85;;
75506;SDS011;64086;43.220;27.878;2022-12-07T05:57:19;23.75;;;16.48;;
75506;SDS011;64086;43.220;27.878;2022-12-07T05:59:44;24.67;;;16.70;;
75506;SDS011;64086;43.220;27.878;2022-12-07T06:02:10;24.33;;;16.55;;
75506;SDS011;64086;43.220;27.878;2022-12-07T06:04:39;21.42;;;16.58;;
75506;SDS011;64086;43.220;27.878;2022-12-07T06:07:06;24.05;;;20.65;;
75506;SDS011;64086;43.220;27.878;2022-12-07T06:09:31;27.02;;;21.48;;
75506;SDS011;64086;43.220;27.878;2022-12-07T06:11:58;24.98;;;20.10;;
75506;SDS011;64086;43.220;27.878;2022-12-07T06:14:42;27.15;;;20.00;;
75506;SDS011;64086;43.220;27.878;2022-12-07T06:17:08;19.85;;;17.05;;
75506;SDS011;64086;43.220;27.878;2022-12-07T06:19:33;22.70;;;17.08;;
75506;SDS011;64086;43.220;27.878;2022-12-07T06:21:59;24.08;;;17.95;;
75506;SDS011;64086;43.220;27.878;2022-12-07T06:24:24;22.52;;;17.40;;
75506;SDS011;64086;43.220;27.878;2022-12-07T06:26:50;22.42;;;16.65;;
75506;SDS011;64086;43.220;27.878;2022-12-07T06:29:16;19.30;;;16.67;;
75506;SDS011;64086;43.220;27.878;2022-12-07T06:31:41;16.63;;;14.88;;
75506;SDS011;64086;43.220;27.878;2022-12-07T06:34:11;19.63;;;15.90;;
75506;SDS011;64086;43.220;27.878;2022-12-07T06:36:38;18.10;;;16.20;;
75506;SDS011;64086;43.220;27.878;2022-12-07T06:39:04;16.33;;;14.55;;
75506;SDS011;64086;43.220;27.878;2022-12-07T06:41:30;16.75;;;15.05;;
75506;SDS011;64086;43.220;27.878;2022-12-07T06:43:56;20.55;;;16.95;;
75506;SDS011;64086;43.220;27.878;2022-12-07T06:46:21;21.27;;;18.60;;
75506;SDS011;64086;43.220;27.878;2022-12-07T06:48:47;20.75;;;18.40;;
75506;SDS011;64086;43.220;27.878;2022-12-07T06:51:13;21.33;;;19.08;;
75506;SDS011;64086;43.220;27.878;2022-12-07T06:53:38;22.25;;;20.05;;
75506;SDS011;64086;43.220;27.878;2022-12-07T06:56:04;28.50;;;25.42;;
75506;SDS011;64086;43.220;27.878;2022-12-07T06:58:30;28.08;;;25.00;;
75506;SDS011;64086;43.220;27.878;2022-12-07T07:00:55;29.60;;;26.50;;
75506;SDS011;64086;43.220;27.878;2022-12-07T07:03:21;30.48;;;25.73;;
75506;SDS011;64086;43.220;27.878;2022-12-07T07:05:47;34.42;;;25.77;;
75506;SDS011;64086;43.220;27.878;2022-12-07T07:08:12;32.17;;;26.52;;
75506;SDS011;64086;43.220;27.878;2022-12-07T07:10:38;31.85;;;25.42;;
75506;SDS011;64086;43.220;27.878;2022-12-07T07:13:04;29.40;;;26.27;;
75506;SDS011;64086;43.220;27.878;2022-12-07T07:15:30;30.23;;;26.05;;
75506;SDS011;64086;43.220;27.878;2022-12-07T07:17:55;32.40;;;28.08;;
75506;SDS011;64086;43.220;27.878;2022-12-07T07:20:21;32.35;;;28.98;;
75506;SDS011;64086;43.220;27.878;2022-12-07T07:22:47;32.83;;;29.35;;
75506;SDS011;64086;43.220;27.878;2022-12-07T07:25:12;30.48;;;26.63;;
75506;SDS011;64086;43.220;27.878;2022-12-07T07:27:38;28.92;;;25.92;;
75506;SDS011;64086;43.220;27.878;2022-12-07T07:30:04;35.10;;;31.33;;
75506;SDS011;64086;43.220;27.878;2022-12-07T07:32:30;36.17;;;32.42;;
75506;SDS011;64086;43.220;27.878;2022-12-07T07:34:55;35.50;;;31.90;;
75506;SDS011;64086;43.220;27.878;2022-12-07T07:37:20;52.22;;;44.00;;
75506;SDS011;64086;43.220;27.878;2022-12-07T07:39:46;63.20;;;45.22;;
75506;SDS011;64086;43.220;27.878;2022-12-07T07:42:11;55.78;;;42.92;;
75506;SDS011;64086;43.220;27.878;2022-12-07T07:44:37;51.70;;;41.92;;
75506;SDS011;64086;43.220;27.878;2022-12-07T07:47:02;40.63;;;33.22;;
75506;SDS011;64086;43.220;27.878;2022-12-07T07:49:28;33.67;;;30.13;;
75506;SDS011;64086;43.220;27.878;2022-12-07T07:51:53;31.98;;;28.73;;
75506;SDS011;64086;43.220;27.878;2022-12-07T07:54:18;30.45;;;25.88;;
75506;SDS011;64086;43.220;27.878;2022-12-07T07:56:44;21.67;;;19.42;;
75506;SDS011;64086;43.220;27.878;2022-12-07T07:59:09;21.88;;;19.67;;
75506;SDS011;64086;43.220;27.878;2022-12-07T08:01:35;24.48;;;19.60;;
75506;SDS011;64086;43.220;27.878;2022-12-07T08:04:00;20.60;;;17.90;;
75506;SDS011;64086;43.220;27.878;2022-12-07T08:06:26;18.73;;;16.65;;
75506;SDS011;64086;43.220;27.878;2022-12-07T08:08:51;16.10;;;14.52;;
75506;SDS011;64086;43.220;27.878;2022-12-07T08:11:17;14.85;;;13.27;;
75506;SDS011;64086;43.220;27.878;2022-12-07T08:13:44;12.20;;;10.75;;
75506;SDS011;64086;43.220;27.878;2022-12-07T08:16:11;13.23;;;11.93;;
75506;SDS011;64086;43.220;27.878;2022-12-07T08:18:38;11.50;;;10.43;;
75506;SDS011;64086;43.220;27.878;2022-12-07T08:21:04;12.25;;;10.45;;
75506;SDS011;64086;43.220;27.878;2022-12-07T08:23:31;11.60;;;10.18;;
75506;SDS011;64086;43.220;27.878;2022-12-07T08:26:03;13.57;;;11.07;;
75506;SDS011;64086;43.220;27.878;2022-12-07T08:28:30;12.32;;;10.40;;
75506;SDS011;64086;43.220;27.878;2022-12-07T08:31:02;11.65;;;10.48;;
75506;SDS011;64086;43.220;27.878;2022-12-07T08:33:29;11.77;;;10.55;;
75506;SDS011;64086;43.220;27.878;2022-12-07T08:35:54;12.15;;;10.57;;
75506;SDS011;64086;43.220;27.878;2022-12-07T08:38:20;14.32;;;11.00;;
75506;SDS011;64086;43.220;27.878;2022-12-07T08:40:53;12.43;;;10.23;;
75506;SDS011;64086;43.220;27.878;2022-12-07T08:43:21;10.20;;;9.20;;
75506;SDS011;64086;43.220;27.878;2022-12-07T08:45:53;8.63;;;7.53;;
75506;SDS011;64086;43.220;27.878;2022-12-07T08:48:21;9.30;;;8.27;;
75506;SDS011;64086;43.220;27.878;2022-12-07T08:50:49;10.18;;;9.25;;
75506;SDS011;64086;43.220;27.878;2022-12-07T08:53:15;10.15;;;8.27;;
75506;SDS011;64086;43.220;27.878;2022-12-07T08:55:41;9.27;;;8.38;;
75506;SDS011;64086;43.220;27.878;2022-12-07T08:58:06;11.55;;;8.32;;
75506;SDS011;64086;43.220;27.878;2022-12-07T09:00:32;9.07;;;7.88;;
75506;SDS011;64086;43.220;27.878;2022-12-07T09:02:57;8.55;;;7.45;;
75506;SDS011;64086;43.220;27.878;2022-12-07T09:05:22;10.23;;;7.43;;
75506;SDS011;64086;43.220;27.878;2022-12-07T09:07:48;9.75;;;7.78;;
75506;SDS011;64086;43.220;27.878;2022-12-07T09:10:16;9.50;;;8.20;;
75506;SDS011;64086;43.220;27.878;2022-12-07T09:12:42;9.45;;;7.68;;
75506;SDS011;64086;43.220;27.878;2022-12-07T09:15:08;9.20;;;7.80;;
75506;SDS011;64086;43.220;27.878;2022-12-07T09:17:34;8.70;;;7.75;;
75506;SDS011;64086;43.220;27.878;2022-12-07T09:20:00;7.60;;;6.90;;
75506;SDS011;64086;43.220;27.878;2022-12-07T09:22:29;8.70;;;7.68;;
75506;SDS011;64086;43.220;27.878;2022-12-07T09:24:56;9.98;;;7.43;;
75506;SDS011;64086;43.220;27.878;2022-12-07T09:27:22;10.90;;;8.32;;
75506;SDS011;64086;43.220;27.878;2022-12-07T09:29:47;9.15;;;8.25;;
75506;SDS011;64086;43.220;27.878;2022-12-07T09:32:13;11.05;;;7.80;;
75506;SDS011;64086;43.220;27.878;2022-12-07T09:34:38;9.80;;;8.38;;
75506;SDS011;64086;43.220;27.878;2022-12-07T09:37:04;10.32;;;8.30;;
75506;SDS011;64086;43.220;27.878;2022-12-07T09:39:29;11.27;;;8.40;;
75506;SDS011;64086;43.220;27.878;2022-12-07T09:41:56;13.38;;;10.88;;
75506;SDS011;64086;43.220;27.878;2022-12-07T09:44:23;12.07;;;9.27;;
75506;SDS011;64086;43.220;27.878;2022-12-07T09:46:50;12.10;;;9.07;;
75506;SDS011;64086;43.220;27.878;2022-12-07T09:49:18;9.95;;;8.95;;
75506;SDS011;64086;43.220;27.878;2022-12-07T09:51:45;10.23;;;9.10;;
75506;SDS011;64086;43.220;27.878;2022-12-07T09:54:12;11.63;;;9.52;;
75506;SDS011;64086;43.220;27.878;2022-12-07T09:56:38;11.82;;;9.90;;
75506;SDS011;64086;43.220;27.878;2022-12-07T09:59:04;11.45;;;9.10;;
75506;SDS011;64086;43.220;27.878;2022-12-07T10:01:30;9.43;;;8.35;;
75506;SDS011;64086;43.220;27.878;2022-12-07T10:04:16;11.32;;;7.97;;
75506;SDS011;64086;43.220;27.878;2022-12-07T10:06:46;10.43;;;7.70;;
75506;SDS011;64086;43.220;27.878;2022-12-07T10:09:14;10.57;;;8.65;;
75506;SDS011;64086;43.220;27.878;2022-12-07T10:14:30;11.00;;;8.45;;
75506;SDS011;64086;43.220;27.878;2022-12-07T10:16:57;13.52;;;8.88;;
75506;SDS011;64086;43.220;27.878;2022-12-07T10:19:27;10.98;;;8.90;;
75506;SDS011;64086;43.220;27.878;2022-12-07T10:22:14;11.68;;;8.45;;
75506;SDS011;64086;43.220;27.878;2022-12-07T10:24:41;12.00;;;8.80;;
75506;SDS011;64086;43.220;27.878;2022-12-07T10:29:47;11.90;;;8.95;;
75506;SDS011;64086;43.220;27.878;2022-12-07T10:34:39;11.63;;;9.23;;
75506;SDS011;64086;43.220;27.878;2022-12-07T10:39:43;11.20;;;7.47;;
75506;SDS011;64086;43.220;27.878;2022-12-07T10:44:48;8.85;;;7.88;;
75506;SDS011;64086;43.220;27.878;2022-12-07T10:50:26;11.80;;;7.93;;
75506;SDS011;64086;43.220;27.878;2022-12-07T10:55:48;14.43;;;10.05;;
75506;SDS011;64086;43.220;27.878;2022-12-07T11:04:07;14.32;;;10.65;;
75506;SDS011;64086;43.220;27.878;2022-12-07T11:36:17;11.25;;;8.02;;
75506;SDS011;64086;43.220;27.878;2022-12-07T11:39:02;11.82;;;8.70;;
75506;SDS011;64086;43.220;27.878;2022-12-07T11:41:35;12.55;;;8.63;;
75506;SDS011;64086;43.220;27.878;2022-12-07T11:52:49;12.75;;;8.25;;
75506;SDS011;64086;43.220;27.878;2022-12-07T11:55:19;10.57;;;8.20;;
75506;SDS011;64086;43.220;27.878;2022-12-07T11:57:51;14.05;;;9.30;;
75506;SDS011;64086;43.220;27.878;2022-12-07T12:00:20;11.95;;;8.95;;
75506;SDS011;64086;43.220;27.878;2022-12-07T12:03:05;11.20;;;8.38;;
75506;SDS011;64086;43.220;27.878;2022-12-07T12:05:36;12.45;;;8.75;;
75506;SDS011;64086;43.220;27.878;2022-12-07T12:08:15;15.27;;;8.40;;
75506;SDS011;64086;43.220;27.878;2022-12-07T12:16:38;12.68;;;9.30;;
75506;SDS011;64086;43.220;27.878;2022-12-07T12:22:16;13.20;;;8.63;;
75506;SDS011;64086;43.220;27.878;2022-12-07T12:24:44;14.30;;;8.85;;
75506;SDS011;64086;43.220;27.878;2022-12-07T12:27:31;13.98;;;9.52;;
75506;SDS011;64086;43.220;27.878;2022-12-07T12:29:59;13.00;;;9.07;;
75506;SDS011;64086;43.220;27.878;2022-12-07T12:40:56;12.43;;;8.32;;
75506;SDS011;64086;43.220;27.878;2022-12-07T12:51:46;13.90;;;10.85;;
75506;SDS011;64086;43.220;27.878;2022-12-07T12:54:19;12.88;;;8.95;;
75506;SDS011;64086;43.220;27.878;2022-12-07T12:59:32;16.55;;;10.70;;
75506;SDS011;64086;43.220;27.878;2022-12-07T13:15:37;15.65;;;10.15;;
75506;SDS011;64086;43.220;27.878;2022-12-07T13:23:36;12.27;;;9.02;;
75506;SDS011;64086;43.220;27.878;2022-12-07T13:31:44;10.30;;;8.25;;
75506;SDS011;64086;43.220;27.878;2022-12-07T13:39:46;12.57;;;8.48;;
75506;SDS011;64086;43.220;27.878;2022-12-07T13:42:22;13.25;;;9.15;;
75506;SDS011;64086;43.220;27.878;2022-12-07T13:44:51;12.70;;;8.40;;
75506;SDS011;64086;43.220;27.878;2022-12-07T13:47:17;11.13;;;8.60;;
75506;SDS011;64086;43.220;27.878;2022-12-07T13:49:54;18.70;;;12.05;;
75506;SDS011;64086;43.220;27.878;2022-12-07T13:52:24;15.43;;;9.88;;
75506;SDS011;64086;43.220;27.878;2022-12-07T13:57:32;12.38;;;8.82;;
75506;SDS011;64086;43.220;27.878;2022-12-07T13:59:59;13.13;;;9.23;;
75506;SDS011;64086;43.220;27.878;2022-12-07T14:02:27;11.77;;;8.20;;
75506;SDS011;64086;43.220;27.878;2022-12-07T14:05:09;13.50;;;9.02;;
75506;SDS011;64086;43.220;27.878;2022-12-07T14:10:30;13.88;;;9.68;;
75506;SDS011;64086;43.220;27.878;2022-12-07T14:12:57;17.33;;;9.23;;
75506;SDS011;64086;43.220;27.878;2022-12-07T14:15:24;12.98;;;9.05;;
75506;SDS011;64086;43.220;27.878;2022-12-07T14:17:54;13.20;;;8.85;;
75506;SDS011;64086;43.220;27.878;2022-12-07T14:22:58;15.02;;;9.23;;
75506;SDS011;64086;43.220;27.878;2022-12-07T14:25:24;17.85;;;8.73;;
75506;SDS011;64086;43.220;27.878;2022-12-07T14:30:21;16.83;;;10.05;;
75506;SDS011;64086;43.220;27.878;2022-12-07T14:32:50;14.05;;;9.52;;
75506;SDS011;64086;43.220;27.878;2022-12-07T14:35:18;14.02;;;9.52;;
75506;SDS011;64086;43.220;27.878;2022-12-07T14:37:45;13.98;;;8.77;;
75506;SDS011;64086;43.220;27.878;2022-12-07T14:40:13;17.30;;;9.55;;
75506;SDS011;64086;43.220;27.878;2022-12-07T14:42:46;16.30;;;9.25;;
75506;SDS011;64086;43.220;27.878;2022-12-07T14:45:13;16.88;;;10.65;;
75506;SDS011;64086;43.220;27.878;2022-12-07T14:47:40;27.88;;;14.52;;
75506;SDS011;64086;43.220;27.878;2022-12-07T14:50:06;26.10;;;15.57;;
75506;SDS011;64086;43.220;27.878;2022-12-07T14:52:32;28.45;;;17.88;;
75506;SDS011;64086;43.220;27.878;2022-12-07T14:54:58;27.40;;;16.85;;
75506;SDS011;64086;43.220;27.878;2022-12-07T14:57:23;22.17;;;15.10;;
75506;SDS011;64086;43.220;27.878;2022-12-07T14:59:49;28.75;;;17.70;;
75506;SDS011;64086;43.220;27.878;2022-12-07T15:02:15;25.63;;;17.95;;
75506;SDS011;64086;43.220;27.878;2022-12-07T15:04:41;26.63;;;16.05;;
75506;SDS011;64086;43.220;27.878;2022-12-07T15:07:10;26.13;;;15.18;;
75506;SDS011;64086;43.220;27.878;2022-12-07T15:09:40;26.88;;;15.50;;
75506;SDS011;64086;43.220;27.878;2022-12-07T15:12:06;21.67;;;15.30;;
75506;SDS011;64086;43.220;27.878;2022-12-07T15:14:31;19.15;;;13.82;;
75506;SDS011;64086;43.220;27.878;2022-12-07T15:16:57;22.58;;;14.05;;
75506;SDS011;64086;43.220;27.878;2022-12-07T15:19:23;20.48;;;15.20;;
75506;SDS011;64086;43.220;27.878;2022-12-07T15:21:51;26.55;;;19.45;;
75506;SDS011;64086;43.220;27.878;2022-12-07T15:24:17;38.40;;;24.55;;
75506;SDS011;64086;43.220;27.878;2022-12-07T15:26:42;44.50;;;30.52;;
75506;SDS011;64086;43.220;27.878;2022-12-07T15:29:08;55.25;;;39.72;;
75506;SDS011;64086;43.220;27.878;2022-12-07T15:31:35;55.25;;;38.92;;
75506;SDS011;64086;43.220;27.878;2022-12-07T15:34:01;62.17;;;41.38;;
75506;SDS011;64086;43.220;27.878;2022-12-07T15:36:27;76.05;;;50.38;;
75506;SDS011;64086;43.220;27.878;2022-12-07T15:38:53;70.88;;;51.60;;
75506;SDS011;64086;43.220;27.878;2022-12-07T15:41:19;81.15;;;63.78;;
75506;SDS011;64086;43.220;27.878;2022-12-07T15:43:45;64.70;;;47.97;;
75506;SDS011;64086;43.220;27.878;2022-12-07T15:46:33;35.38;;;25.05;;
75506;SDS011;64086;43.220;27.878;2022-12-07T15:48:59;32.80;;;23.38;;
75506;SDS011;64086;43.220;27.878;2022-12-07T15:51:25;61.10;;;43.05;;
75506;SDS011;64086;43.220;27.878;2022-12-07T15:53:51;63.17;;;46.63;;
75506;SDS011;64086;43.220;27.878;2022-12-07T15:56:16;71.43;;;50.38;;
75506;SDS011;64086;43.220;27.878;2022-12-07T15:58:42;57.25;;;41.38;;
75506;SDS011;64086;43.220;27.878;2022-12-07T16:01:14;55.58;;;39.55;;
75506;SDS011;64086;43.220;27.878;2022-12-07T16:03:41;50.20;;;35.75;;
75506;SDS011;64086;43.220;27.878;2022-12-07T16:06:07;42.20;;;32.10;;
75506;SDS011;64086;43.220;27.878;2022-12-07T16:08:33;44.45;;;33.75;;
75506;SDS011;64086;43.220;27.878;2022-12-07T16:10:58;67.30;;;52.42;;
75506;SDS011;64086;43.220;27.878;2022-12-07T16:13:24;53.17;;;38.72;;
75506;SDS011;64086;43.220;27.878;2022-12-07T16:15:49;58.47;;;40.75;;
75506;SDS011;64086;43.220;27.878;2022-12-07T16:18:15;44.55;;;32.25;;
75506;SDS011;64086;43.220;27.878;2022-12-07T16:20:40;42.15;;;26.38;;
75506;SDS011;64086;43.220;27.878;2022-12-07T16:23:06;32.78;;;22.17;;
75506;SDS011;64086;43.220;27.878;2022-12-07T16:25:32;32.08;;;23.00;;
75506;SDS011;64086;43.220;27.878;2022-12-07T16:27:58;31.42;;;24.27;;
75506;SDS011;64086;43.220;27.878;2022-12-07T16:30:23;35.08;;;22.67;;
75506;SDS011;64086;43.220;27.878;2022-12-07T16:32:50;36.55;;;23.50;;
75506;SDS011;64086;43.220;27.878;2022-12-07T16:35:16;36.35;;;26.55;;
75506;SDS011;64086;43.220;27.878;2022-12-07T16:37:41;37.65;;;28.35;;
75506;SDS011;64086;43.220;27.878;2022-12-07T16:40:07;33.08;;;24.77;;
75506;SDS011;64086;43.220;27.878;2022-12-07T16:42:34;35.45;;;25.55;;
75506;SDS011;64086;43.220;27.878;2022-12-07T16:45:00;32.75;;;25.33;;
75506;SDS011;64086;43.220;27.878;2022-12-07T16:47:26;28.35;;;20.95;;
75506;SDS011;64086;43.220;27.878;2022-12-07T16:49:51;28.67;;;19.55;;
75506;SDS011;64086;43.220;27.878;2022-12-07T16:52:17;28.08;;;20.48;;
75506;SDS011;64086;43.220;27.878;2022-12-07T16:54:43;26.30;;;19.98;;
75506;SDS011;64086;43.220;27.878;2022-12-07T16:57:09;26.45;;;20.25;;
75506;SDS011;64086;43.220;27.878;2022-12-07T16:59:34;26.50;;;19.40;;
75506;SDS011;64086;43.220;27.878;2022-12-07T17:02:00;25.52;;;19.05;;
75506;SDS011;64086;43.220;27.878;2022-12-07T17:04:25;25.85;;;19.92;;